This is the latest recevied weather packets stored in our database for station/object KA9CBS. If no packets are shown the sender has not sent any weather packets the latest 10 day(s).
| Time | Temp. | Humidity | Pressure | Rain* | Wind** | Luminosity | Snow |
|---|---|---|---|---|---|---|---|
| 1778161676 | 11.67° C | 69% | 1019.5 hPa | 0 mm | - | 298 W/m² | - |
| 1778161373 | 11.67° C | 67% | 1019.4 hPa | 0 mm | - | 301 W/m² | - |
| 1778161068 | 11.67° C | 68% | 1019.3 hPa | 0 mm | - | 283 W/m² | - |
| 1778160765 | 11.67° C | 72% | 1019.4 hPa | 0 mm | - | 271 W/m² | - |
| 1778160463 | 11.11° C | 72% | 1019.3 hPa | 0 mm | - | 258 W/m² | - |
| 1778160159 | 11.11° C | 69% | 1019.3 hPa | 0 mm | - | 248 W/m² | - |
| 1778159856 | 11.11° C | 73% | 1019.5 hPa | 0 mm | - | 223 W/m² | - |
| 1778159553 | 10.56° C | 76% | 1019.4 hPa | 0 mm | - | 207 W/m² | - |
| 1778159250 | 10° C | 80% | 1019.4 hPa | 0 mm | - | 185 W/m² | - |
| 1778158948 | 9.44° C | 84% | 1019.5 hPa | 0 mm | - | 173 W/m² | - |
| 1778158646 | 8.89° C | 86% | 1019.4 hPa | 0 mm | - | 152 W/m² | - |
| 1778158343 | 8.33° C | 91% | 1019.1 hPa | 0 mm | - | 143 W/m² | - |
| 1778158040 | 8.33° C | 96% | 1019.1 hPa | 0 mm | - | 82 W/m² | - |
| 1778157737 | 7.78° C | 98% | 1019.3 hPa | 0 mm | - | 73 W/m² | - |
| 1778157435 | 7.78° C | 98% | 1019.2 hPa | 0 mm | - | 65 W/m² | - |
| 1778157132 | 7.22° C | 98% | 1019.3 hPa | 0 mm | - | 63 W/m² | - |
| 1778156827 | 6.67° C | 99% | 1019.4 hPa | 0 mm | - | 58 W/m² | - |
| 1778156523 | 6.11° C | 98% | 1019.1 hPa | 0 mm | - | 43 W/m² | - |
| 1778156219 | 6.11° C | 98% | 1019.1 hPa | 0 mm | - | 37 W/m² | - |
| 1778155915 | 5.56° C | 98% | 1019 hPa | 0 mm | - | 36 W/m² | - |
| 1778155612 | 5° C | 98% | 1019.2 hPa | 0 mm | - | 33 W/m² | - |
| 1778155309 | 5° C | 98% | 1019.1 hPa | 0 mm | - | 32 W/m² | - |
| 1778155005 | 4.44° C | 98% | 1019.2 hPa | 0 mm | - | 31 W/m² | - |
| 1778154700 | 3.89° C | 98% | 1019 hPa | 0 mm | - | 28 W/m² | - |
| 1778154397 | 3.89° C | 98% | 1019 hPa | 0 mm | - | 27 W/m² | - |
* Rain latest hour (hover to see other rain measurements)
** Current wind speed in m/s (hover to see current wind gust speed)